CYHZ/YHZ METAR and TAF weather

Enter ICAO airport designator
Station Type Date Time Source
CYHZ METAR 2018/07/19 07:00 UTC NOAA

CYHZ 190700Z 34007KT 10SM FEW003 BKN006 OVC260 17/17 A2986 RMK SF1ST6CI1 SLP113 DENSITY ALT 1000FT


Station Type Date Time Source
CYHZ Decoded METAR 2018/07/19 07:00 UTC NOAA

Halifax International Airport , Canada (CYHZ) 44-53N 063-30W
Jul 19, 2018 - 03:00 AM EDT / 2018.07.19 0700 UTC
Wind: from the NNW (340 degrees) at 8 MPH (7 KT):0
Visibility: 10 mile(s):0
Sky conditions: overcast
Temperature: 62 F (17 C)
Dew Point: 62 F (17 C)
Relative Humidity: 100%
Pressure (altimeter): 29.86 in. Hg (1011 hPa)
ob: CYHZ 190700Z 34007KT 10SM FEW003 BKN006 OVC260 17/17 A2986 RMK SF1ST6CI1 SLP113 DENSITY ALT 1000FT
cycle: 7

Station Type Date Time Source
CYHZ TAF 2018/07/19 07:06 UTC NOAA

TAF
AMD TAF
AMD CYHZ 190702Z 1907/2006 33007KT P6SM FEW003 BKN006 BKN250
TEMPO 1907/1908 SCT006 OVC240 PROB30 1907/1908 3SM BR BKN003
FM191000 36008KT P6SM SCT025
TEMPO 1910/1912 BKN015
FM191200 01004KT P6SM FEW030
TEMPO 1917/1922 BKN030
FM192300 16004KT P6SM FEW030
FM200500 VRB03KT P6SM FEW004
RMK NXT FCST BY 190900Z


Example: see airport list